createdAt,value
2024-03-17T00:00:38.000Z,6.9
2024-03-17T00:01:50.000Z,6.9
2024-03-17T00:03:02.000Z,6.9
2024-03-17T00:04:15.000Z,6.9
2024-03-17T00:05:27.000Z,6.9
2024-03-17T00:06:39.000Z,6.9
2024-03-17T00:07:51.000Z,6.9
2024-03-17T00:09:03.000Z,6.9
2024-03-17T00:10:16.000Z,6.9
2024-03-17T00:11:28.000Z,6.8
2024-03-17T00:12:39.000Z,6.8
2024-03-17T00:13:51.000Z,6.8
2024-03-17T00:15:03.000Z,6.8
2024-03-17T00:16:15.000Z,6.8
2024-03-17T00:17:28.000Z,6.8
2024-03-17T00:18:40.000Z,6.8
2024-03-17T00:19:52.000Z,6.8
2024-03-17T00:21:04.000Z,6.8
2024-03-17T00:22:16.000Z,6.8
2024-03-17T00:23:29.000Z,6.8
2024-03-17T00:24:41.000Z,6.7
2024-03-17T00:25:53.000Z,6.7
2024-03-17T00:27:05.000Z,6.7
2024-03-17T00:28:16.000Z,6.7
2024-03-17T00:30:41.000Z,6.6
2024-03-17T00:31:53.000Z,6.6
2024-03-17T00:32:16.073Z,6.6
2024-03-17T00:33:05.000Z,6.6
2024-03-17T00:34:17.000Z,6.6
2024-03-17T00:35:29.000Z,6.6
2024-03-17T00:36:42.000Z,6.6
2024-03-17T00:37:54.000Z,6.6
2024-03-17T00:39:06.000Z,6.6
2024-03-17T00:40:18.000Z,6.6
2024-03-17T00:41:30.000Z,6.6
2024-03-17T00:42:43.000Z,6.6
2024-03-17T00:45:06.000Z,6.6
2024-03-17T00:46:18.000Z,6.6
2024-03-17T00:46:41.326Z,6.6
2024-03-17T00:47:30.000Z,6.6
2024-03-17T00:48:42.000Z,6.6
2024-03-17T00:49:55.000Z,6.6
2024-03-17T00:51:07.000Z,6.6
2024-03-17T00:52:19.000Z,6.6
2024-03-17T00:53:31.000Z,6.6
2024-03-17T00:54:43.000Z,6.6
2024-03-17T00:55:56.000Z,6.5
2024-03-17T00:57:08.000Z,6.5
2024-03-17T00:58:20.000Z,6.5
2024-03-17T01:00:43.000Z,6.5
2024-03-17T01:01:56.000Z,6.5
2024-03-17T01:02:18.776Z,6.5
2024-03-17T01:03:08.000Z,6.5
2024-03-17T01:04:20.000Z,6.4
2024-03-17T01:05:32.000Z,6.4
2024-03-17T01:06:44.000Z,6.4
2024-03-17T01:07:56.000Z,6.4
2024-03-17T01:09:09.000Z,6.4
2024-03-17T01:10:21.000Z,6.4
2024-03-17T01:11:33.000Z,6.3
2024-03-17T01:12:45.000Z,6.3
2024-03-17T01:13:57.000Z,6.3
2024-03-17T01:15:09.000Z,6.3
2024-03-17T01:16:21.000Z,6.3
2024-03-17T01:17:33.000Z,6.3
2024-03-17T01:18:45.000Z,6.3
2024-03-17T01:22:22.000Z,6.2
2024-03-17T01:22:44.941Z,6.3
2024-03-17T01:23:34.000Z,6.2
2024-03-17T01:23:57.139Z,6.2
2024-03-17T01:24:46.000Z,6.2
2024-03-17T01:25:58.000Z,6.2
2024-03-17T01:27:10.000Z,6.2
2024-03-17T01:28:23.000Z,6.2
2024-03-17T01:29:35.000Z,6.1
2024-03-17T01:30:46.000Z,6.1
2024-03-17T01:31:58.000Z,6.1
2024-03-17T01:34:23.000Z,6.1
2024-03-17T01:35:35.000Z,6.1
2024-03-17T01:35:58.003Z,6.1
2024-03-17T01:36:47.000Z,6.1
2024-03-17T01:37:59.000Z,6.1
2024-03-17T01:39:11.000Z,6.1
2024-03-17T01:40:23.000Z,6.1
2024-03-17T01:41:36.000Z,6.1
2024-03-17T01:42:48.000Z,6
2024-03-17T01:44:00.000Z,6
2024-03-17T01:45:12.000Z,6
2024-03-17T01:46:23.000Z,6
2024-03-17T01:47:36.000Z,6
2024-03-17T01:48:48.000Z,6
2024-03-17T01:50:00.000Z,6
2024-03-17T01:51:12.000Z,6
2024-03-17T01:52:24.000Z,6
2024-03-17T01:53:37.000Z,6
2024-03-17T01:54:49.000Z,6
2024-03-17T01:56:01.000Z,6
2024-03-17T01:57:13.000Z,6
2024-03-17T01:58:25.000Z,6
2024-03-17T01:59:37.000Z,6
2024-03-17T02:00:50.000Z,6
2024-03-17T02:02:01.000Z,5.9
2024-03-17T02:03:13.000Z,5.9
2024-03-17T02:04:25.000Z,5.9
2024-03-17T02:05:37.000Z,5.9
2024-03-17T02:06:50.000Z,5.9
2024-03-17T02:08:02.000Z,5.9
2024-03-17T02:09:14.000Z,5.9
2024-03-17T02:10:26.000Z,5.9
2024-03-17T02:11:38.000Z,5.9
2024-03-17T02:12:51.000Z,5.9
2024-03-17T02:14:03.000Z,5.9
2024-03-17T02:15:15.000Z,5.8
2024-03-17T02:16:27.000Z,5.8
2024-03-17T02:17:38.000Z,5.8
2024-03-17T02:18:50.000Z,5.8
2024-03-17T02:20:03.000Z,5.8
2024-03-17T02:21:15.000Z,5.8
2024-03-17T02:22:27.000Z,5.8
2024-03-17T02:23:39.000Z,5.8
2024-03-17T02:24:50.000Z,5.8
2024-03-17T02:26:03.000Z,5.8
2024-03-17T02:27:15.000Z,5.7
2024-03-17T02:28:27.000Z,5.7
2024-03-17T02:29:39.000Z,5.7
2024-03-17T02:30:51.000Z,5.7
2024-03-17T02:32:04.000Z,5.7
2024-03-17T02:33:16.000Z,5.7
2024-03-17T02:34:28.000Z,5.7
2024-03-17T02:35:40.000Z,5.7
2024-03-17T02:36:52.000Z,5.7
2024-03-17T02:38:04.000Z,5.7
2024-03-17T02:39:17.000Z,5.6
2024-03-17T02:40:28.000Z,5.6
2024-03-17T02:41:40.000Z,5.6
2024-03-17T02:42:52.000Z,5.6
2024-03-17T02:44:04.000Z,5.6
2024-03-17T02:45:17.000Z,5.6
2024-03-17T02:46:29.240Z,5.6
2024-03-17T02:47:41.000Z,5.6
2024-03-17T02:48:53.000Z,5.5
2024-03-17T02:50:05.000Z,5.5
2024-03-17T02:51:17.000Z,5.5
2024-03-17T02:52:30.000Z,5.5
2024-03-17T02:53:42.000Z,5.5
2024-03-17T02:54:54.000Z,5.5
2024-03-17T02:56:05.000Z,5.5
2024-03-17T02:57:17.000Z,5.5
2024-03-17T02:58:30.000Z,5.5
2024-03-17T02:59:42.000Z,5.5
2024-03-17T03:00:54.000Z,5.5
2024-03-17T03:02:06.000Z,5.5
2024-03-17T03:03:18.000Z,5.4
2024-03-17T03:04:31.000Z,5.4
2024-03-17T03:05:43.000Z,5.4
2024-03-17T03:06:55.000Z,5.4
2024-03-17T03:08:07.000Z,5.4
2024-03-17T03:09:19.000Z,5.4
2024-03-17T03:10:31.000Z,5.4
2024-03-17T03:11:43.000Z,5.4
2024-03-17T03:12:55.000Z,5.4
2024-03-17T03:14:07.000Z,5.4
2024-03-17T03:15:19.000Z,5.4
2024-03-17T03:16:31.000Z,5.4
2024-03-17T03:17:44.000Z,5.4
2024-03-17T03:18:56.000Z,5.4
2024-03-17T03:20:08.000Z,5.4
2024-03-17T03:21:20.000Z,5.4
2024-03-17T03:22:32.000Z,5.4
2024-03-17T03:23:44.000Z,5.4
2024-03-17T03:24:57.000Z,5.4
2024-03-17T03:26:09.000Z,5.4
2024-03-17T03:27:20.000Z,5.4
2024-03-17T03:28:32.000Z,5.4
2024-03-17T03:29:44.000Z,5.4
2024-03-17T03:30:57.000Z,5.4
2024-03-17T03:32:09.000Z,5.4
2024-03-17T03:33:21.000Z,5.4
2024-03-17T03:35:45.000Z,5.3
2024-03-17T03:36:58.000Z,5.3
2024-03-17T03:37:20.863Z,5.3
2024-03-17T03:38:10.000Z,5.3
2024-03-17T03:39:22.000Z,5.3
2024-03-17T03:40:34.000Z,5.3
2024-03-17T03:41:46.000Z,5.3
2024-03-17T03:42:57.000Z,5.3
2024-03-17T03:44:10.000Z,5.3
2024-03-17T03:45:22.000Z,5.3
2024-03-17T03:46:34.000Z,5.3
2024-03-17T03:47:46.000Z,5.3
2024-03-17T03:48:58.000Z,5.3
2024-03-17T03:50:11.000Z,5.3
2024-03-17T03:51:23.000Z,5.3
2024-03-17T03:52:35.000Z,5.3
2024-03-17T03:53:47.000Z,5.3
2024-03-17T03:54:59.000Z,5.3
2024-03-17T03:56:11.000Z,5.3
2024-03-17T03:57:24.000Z,5.3
2024-03-17T03:58:35.000Z,5.3
2024-03-17T04:00:59.000Z,5.3
2024-03-17T04:02:11.000Z,5.3
2024-03-17T04:02:34.758Z,5.3
2024-03-17T04:03:24.000Z,5.3
2024-03-17T04:05:48.000Z,5.3
2024-03-17T04:07:00.000Z,5.2
2024-03-17T04:07:23.502Z,5.3
2024-03-17T04:08:12.000Z,5.2
2024-03-17T04:09:24.000Z,5.2
2024-03-17T04:10:37.000Z,5.2
2024-03-17T04:11:49.000Z,5.2
2024-03-17T04:13:01.000Z,5.2
2024-03-17T04:15:24.000Z,5.2
2024-03-17T04:16:37.000Z,5.1
2024-03-17T04:16:59.985Z,5.2
2024-03-17T04:17:49.000Z,5.1
2024-03-17T04:19:01.000Z,5.1
2024-03-17T04:20:13.000Z,5.1
2024-03-17T04:21:25.000Z,5.1
2024-03-17T04:22:38.000Z,5.1
2024-03-17T04:23:50.000Z,5
2024-03-17T04:25:02.000Z,5
2024-03-17T04:26:14.000Z,5
2024-03-17T04:27:26.000Z,5
2024-03-17T04:29:50.000Z,5
2024-03-17T04:31:02.000Z,5
2024-03-17T04:31:26.214Z,5
2024-03-17T04:32:14.000Z,5
2024-03-17T04:33:26.000Z,4.9
2024-03-17T04:34:38.000Z,4.9
2024-03-17T04:35:51.000Z,4.9
2024-03-17T04:37:03.000Z,4.9
2024-03-17T04:38:15.000Z,4.9
2024-03-17T04:39:27.000Z,4.9
2024-03-17T04:40:39.000Z,4.9
2024-03-17T04:41:51.000Z,4.9
2024-03-17T04:43:04.000Z,4.8
2024-03-17T04:44:16.000Z,4.8
2024-03-17T04:46:39.000Z,4.8
2024-03-17T04:47:51.000Z,4.8
2024-03-17T04:48:14.819Z,4.8
2024-03-17T04:49:04.000Z,4.8
2024-03-17T04:50:16.000Z,4.8
2024-03-17T04:51:28.000Z,4.8
2024-03-17T04:52:40.000Z,4.8
2024-03-17T04:53:52.000Z,4.8
2024-03-17T04:55:05.000Z,4.7
2024-03-17T04:56:17.000Z,4.7
2024-03-17T04:57:29.000Z,4.7
2024-03-17T04:58:41.000Z,4.7
2024-03-17T04:59:53.000Z,4.7
2024-03-17T05:01:04.000Z,4.7
2024-03-17T05:02:17.000Z,4.6
2024-03-17T05:03:29.000Z,4.6
2024-03-17T05:04:41.000Z,4.6
2024-03-17T05:05:53.000Z,4.6
2024-03-17T05:07:05.000Z,4.6
2024-03-17T05:08:18.000Z,4.6
2024-03-17T05:09:30.000Z,4.6
2024-03-17T05:10:42.000Z,4.6
2024-03-17T05:11:54.000Z,4.6
2024-03-17T05:13:06.000Z,4.6
2024-03-17T05:14:18.000Z,4.6
2024-03-17T05:15:31.000Z,4.6
2024-03-17T05:16:42.000Z,4.6
2024-03-17T05:17:54.000Z,4.6
2024-03-17T05:19:06.000Z,4.6
2024-03-17T05:20:18.000Z,4.6
2024-03-17T05:21:31.000Z,4.6
2024-03-17T05:22:43.000Z,4.6
2024-03-17T05:23:55.000Z,4.6
2024-03-17T05:25:07.000Z,4.6
2024-03-17T05:26:19.000Z,4.6
2024-03-17T05:27:32.000Z,4.6
2024-03-17T05:28:44.000Z,4.6
2024-03-17T05:29:56.000Z,4.6
2024-03-17T05:31:08.000Z,4.6
2024-03-17T05:32:19.000Z,4.6
2024-03-17T05:33:31.000Z,4.6
2024-03-17T05:34:44.000Z,4.6
2024-03-17T05:35:56.000Z,4.6
2024-03-17T05:37:08.000Z,4.7
2024-03-17T05:38:20.000Z,4.7
2024-03-17T05:39:32.000Z,4.7
2024-03-17T05:41:57.000Z,4.7
2024-03-17T05:43:09.000Z,4.8
2024-03-17T05:43:32.351Z,4.7
2024-03-17T05:44:21.000Z,4.8
2024-03-17T05:45:33.000Z,4.8
2024-03-17T05:46:45.000Z,4.8
2024-03-17T05:47:57.000Z,4.8
2024-03-17T05:49:09.000Z,4.8
2024-03-17T05:50:21.000Z,4.9
2024-03-17T05:51:33.000Z,4.9
2024-03-17T05:52:45.000Z,4.9
2024-03-17T05:53:58.000Z,4.9
2024-03-17T05:55:10.000Z,4.9
2024-03-17T05:56:22.000Z,5
2024-03-17T05:57:34.000Z,5
2024-03-17T05:58:46.000Z,5
2024-03-17T05:59:58.000Z,5
2024-03-17T06:01:11.000Z,5
2024-03-17T06:02:23.000Z,5.1
2024-03-17T06:03:34.000Z,5.1
2024-03-17T06:04:46.000Z,5.1
2024-03-17T06:05:58.000Z,5.1
2024-03-17T06:07:11.000Z,5.1
2024-03-17T06:08:23.000Z,5.2
2024-03-17T06:09:35.000Z,5.2
2024-03-17T06:10:47.000Z,5.2
2024-03-17T06:11:59.000Z,5.3
2024-03-17T06:13:12.000Z,5.3
2024-03-17T06:14:24.000Z,5.3
2024-03-17T06:15:36.000Z,5.4
2024-03-17T06:16:48.000Z,5.4
2024-03-17T06:18:00.000Z,5.4
2024-03-17T06:19:11.000Z,5.4
2024-03-17T06:20:24.000Z,5.4
2024-03-17T06:21:36.000Z,5.5
2024-03-17T06:22:48.000Z,5.5
2024-03-17T06:24:00.000Z,5.6
2024-03-17T06:25:12.000Z,5.6
2024-03-17T06:26:24.000Z,5.7
2024-03-17T06:27:36.000Z,5.9
2024-03-17T06:28:48.000Z,6
2024-03-17T06:30:00.000Z,6.1
2024-03-17T06:31:12.000Z,6.2
2024-03-17T06:32:25.000Z,6.3
2024-03-17T06:33:37.000Z,6.5
2024-03-17T06:34:49.000Z,6.5
2024-03-17T06:36:01.000Z,6.6
2024-03-17T06:37:13.000Z,6.6
2024-03-17T06:38:25.000Z,6.7
2024-03-17T06:39:38.000Z,6.8
2024-03-17T06:40:50.000Z,6.9
2024-03-17T06:42:01.000Z,7
2024-03-17T06:43:13.000Z,7.2
2024-03-17T06:44:25.000Z,7.3
2024-03-17T06:45:38.000Z,7.5
2024-03-17T06:46:50.000Z,7.6
2024-03-17T06:48:02.000Z,7.7
2024-03-17T06:49:14.000Z,7.8
2024-03-17T06:50:26.000Z,7.9
2024-03-17T06:52:51.000Z,8
2024-03-17T06:54:03.000Z,8
2024-03-17T06:54:26.315Z,8
2024-03-17T06:55:15.000Z,8
2024-03-17T06:56:27.000Z,8
2024-03-17T06:57:38.000Z,8.1
2024-03-17T06:58:51.000Z,8.1
2024-03-17T07:00:03.000Z,8.1
2024-03-17T07:01:15.000Z,8.1
2024-03-17T07:02:27.000Z,8
2024-03-17T07:03:39.000Z,8
2024-03-17T07:04:51.000Z,8.1
2024-03-17T07:06:04.000Z,8.2
2024-03-17T07:07:16.000Z,8.4
2024-03-17T07:08:28.000Z,8.5
2024-03-17T07:09:40.000Z,8.5
2024-03-17T07:10:52.000Z,8.7
2024-03-17T07:12:05.000Z,8.8
2024-03-17T07:13:16.000Z,8.8
2024-03-17T07:14:28.000Z,9
2024-03-17T07:15:40.000Z,9.4
2024-03-17T07:16:52.000Z,9.9
2024-03-17T07:18:05.000Z,10.2
2024-03-17T07:19:17.000Z,10.1
2024-03-17T07:20:29.000Z,10.2
2024-03-17T07:21:41.000Z,10.9
2024-03-17T07:22:53.000Z,11.4
2024-03-17T07:24:05.000Z,11.4
2024-03-17T07:25:18.000Z,12
2024-03-17T07:26:30.000Z,12.2
2024-03-17T07:27:42.000Z,12.4
2024-03-17T07:28:53.000Z,12.6
2024-03-17T07:31:18.000Z,13.1
2024-03-17T07:32:30.000Z,13.3
2024-03-17T07:32:53.284Z,12.9
2024-03-17T07:33:42.000Z,13.5
2024-03-17T07:34:54.000Z,13.9
2024-03-17T07:36:06.000Z,14.3
2024-03-17T07:37:18.000Z,14.6
2024-03-17T07:38:31.000Z,15.2
2024-03-17T07:39:43.000Z,15.8
2024-03-17T07:40:55.000Z,16.1
2024-03-17T07:42:07.000Z,16.1
2024-03-17T07:43:19.000Z,16.4
2024-03-17T07:44:31.000Z,16.6
2024-03-17T07:45:43.000Z,16.2
2024-03-17T07:46:55.000Z,15.9
2024-03-17T07:48:07.000Z,16.4
2024-03-17T07:49:19.000Z,17.1
2024-03-17T07:50:32.000Z,17.2
2024-03-17T07:51:44.000Z,17.2
2024-03-17T07:54:08.000Z,20.4
2024-03-17T07:55:20.000Z,21
2024-03-17T07:55:43.801Z,18.7
2024-03-17T07:56:32.000Z,21.7
2024-03-17T07:57:45.000Z,22.7
2024-03-17T07:58:57.000Z,23.8
2024-03-17T08:00:08.000Z,24.5
2024-03-17T08:01:20.000Z,24.1
2024-03-17T08:02:32.000Z,23.5
2024-03-17T08:03:45.000Z,23.4
2024-03-17T08:04:57.000Z,23.7
2024-03-17T08:06:09.000Z,24.4
2024-03-17T08:07:21.000Z,25.6
2024-03-17T08:08:33.000Z,26.6
2024-03-17T08:09:45.000Z,27.3
2024-03-17T08:10:58.000Z,27.6
2024-03-17T08:12:10.000Z,27.8
2024-03-17T08:13:22.000Z,28
2024-03-17T08:14:34.000Z,28.3
2024-03-17T08:15:45.000Z,28.6
2024-03-17T08:16:58.000Z,28.6
2024-03-17T08:18:10.000Z,29
2024-03-17T08:19:22.000Z,29.3
2024-03-17T08:20:34.000Z,29.8
2024-03-17T08:21:46.000Z,30.2
2024-03-17T08:22:59.000Z,30.5
2024-03-17T08:24:11.000Z,31.2
2024-03-17T08:25:23.000Z,31.4
2024-03-17T08:26:35.000Z,31.6
2024-03-17T08:27:47.000Z,31.8
2024-03-17T08:28:59.000Z,31.9
2024-03-17T08:30:12.000Z,31.7
2024-03-17T08:31:23.000Z,32
2024-03-17T08:32:35.000Z,32.4
2024-03-17T08:33:47.000Z,32.6
2024-03-17T08:34:59.000Z,32.8
2024-03-17T08:36:12.000Z,33.1
2024-03-17T08:37:24.000Z,33.4
2024-03-17T08:38:36.000Z,34.1
2024-03-17T08:39:48.000Z,34.5
2024-03-17T08:41:00.000Z,34
2024-03-17T08:43:25.000Z,32.5
2024-03-17T08:44:37.000Z,32.3
2024-03-17T08:45:00.400Z,33.1
2024-03-17T08:45:49.000Z,31.6
2024-03-17T08:47:00.000Z,31.1
2024-03-17T08:48:12.000Z,30.6
2024-03-17T08:49:25.000Z,29.8
2024-03-17T08:50:37.000Z,28.6
2024-03-17T08:51:49.000Z,27.6
2024-03-17T08:53:01.000Z,26.7
2024-03-17T08:54:13.000Z,25.9
2024-03-17T08:55:25.000Z,25.2
2024-03-17T08:56:38.000Z,24.5
2024-03-17T08:57:50.000Z,24
2024-03-17T08:59:02.000Z,23.3
2024-03-17T09:00:14.000Z,22.7
2024-03-17T09:01:26.000Z,22.1
2024-03-17T09:02:38.000Z,21.4
2024-03-17T09:03:50.000Z,20.9
2024-03-17T09:05:02.000Z,20.4
2024-03-17T09:06:14.000Z,20.2
2024-03-17T09:07:26.000Z,19.9
2024-03-17T09:08:39.000Z,19.7
2024-03-17T09:09:51.000Z,19.3
2024-03-17T09:11:03.000Z,19
2024-03-17T09:12:15.000Z,19
2024-03-17T09:13:27.000Z,19.2
2024-03-17T09:14:39.000Z,19.3
2024-03-17T09:15:52.000Z,19.4
2024-03-17T09:17:04.000Z,19.5
2024-03-17T09:18:15.000Z,19.6
2024-03-17T09:19:27.000Z,19.4
2024-03-17T09:20:39.000Z,19.1
2024-03-17T09:21:52.000Z,19
2024-03-17T09:23:04.000Z,18.7
2024-03-17T09:24:16.000Z,18.8
2024-03-17T09:25:28.000Z,18.4
2024-03-17T09:26:40.000Z,18.1
2024-03-17T09:27:52.000Z,17.9
2024-03-17T09:29:05.000Z,18.5
2024-03-17T09:30:17.000Z,19.8
2024-03-17T09:31:29.000Z,20.8
2024-03-17T09:32:41.000Z,21.3
2024-03-17T09:33:52.000Z,20.9
2024-03-17T09:35:05.000Z,21.7
2024-03-17T09:36:17.000Z,23.7
2024-03-17T09:38:41.000Z,26.5
2024-03-17T09:39:53.000Z,26.8
2024-03-17T09:40:16.941Z,25.7
2024-03-17T09:41:05.000Z,27.8
2024-03-17T09:42:18.000Z,25.8
2024-03-17T09:43:30.000Z,24.4
2024-03-17T09:44:42.000Z,23.5
2024-03-17T09:45:54.000Z,22.8
2024-03-17T09:47:06.000Z,23
2024-03-17T09:48:19.000Z,25.1
2024-03-17T09:49:30.000Z,26.7
2024-03-17T09:50:42.000Z,27.5
2024-03-17T09:51:54.000Z,27.5
2024-03-17T09:53:06.000Z,27.5
2024-03-17T09:54:19.000Z,27.4
2024-03-17T09:55:31.000Z,27.4
2024-03-17T09:56:43.000Z,27.4
2024-03-17T09:57:55.000Z,26.4
2024-03-17T09:59:07.000Z,25.6
2024-03-17T10:00:19.000Z,24.9
2024-03-17T10:01:32.000Z,24.7
2024-03-17T10:02:44.000Z,24
2024-03-17T10:03:56.000Z,23.3
2024-03-17T10:05:07.000Z,22.6
2024-03-17T10:06:19.000Z,22
2024-03-17T10:07:32.000Z,21.5
2024-03-17T10:08:44.000Z,21
2024-03-17T10:09:56.000Z,20.7
2024-03-17T10:11:08.000Z,20.4
2024-03-17T10:12:20.000Z,20.2
2024-03-17T10:13:32.000Z,20
2024-03-17T10:14:45.000Z,19.8
2024-03-17T10:15:57.000Z,19.5
2024-03-17T10:17:09.000Z,19.2
2024-03-17T10:18:21.000Z,19.1
2024-03-17T10:19:33.000Z,18.8
2024-03-17T10:20:45.000Z,18.4
2024-03-17T10:21:57.000Z,18.1
2024-03-17T10:23:09.000Z,18
2024-03-17T10:24:21.000Z,17.7
2024-03-17T10:25:33.000Z,17.5
2024-03-17T10:26:46.000Z,17.2
2024-03-17T10:27:57.000Z,17
2024-03-17T10:29:09.000Z,16.8
2024-03-17T10:30:21.000Z,16.7
2024-03-17T10:31:33.000Z,16.6
2024-03-17T10:32:45.000Z,16.5
2024-03-17T10:33:58.000Z,16.5
2024-03-17T10:35:10.000Z,16.5
2024-03-17T10:36:22.000Z,16.5
2024-03-17T10:37:34.000Z,16.4
2024-03-17T10:38:46.000Z,16.3
2024-03-17T10:39:59.000Z,16.3
2024-03-17T10:41:11.000Z,16.3
2024-03-17T10:42:23.000Z,16.1
2024-03-17T10:43:34.000Z,16
2024-03-17T10:44:46.000Z,15.8
2024-03-17T10:45:58.000Z,15.8
2024-03-17T10:47:11.000Z,15.7
2024-03-17T10:48:23.000Z,15.8
2024-03-17T10:49:35.000Z,17.6
2024-03-17T10:50:47.000Z,19.2
2024-03-17T10:51:59.000Z,22.2
2024-03-17T10:53:12.000Z,23.9
2024-03-17T10:54:24.000Z,24.6
2024-03-17T10:55:36.000Z,24.1
2024-03-17T10:56:48.000Z,23.6
2024-03-17T10:58:00.000Z,23.8
2024-03-17T10:59:12.000Z,22.5
2024-03-17T11:00:24.000Z,21.5
2024-03-17T11:01:36.000Z,20.8
2024-03-17T11:02:48.000Z,20.2
2024-03-17T11:04:00.000Z,19.7
2024-03-17T11:05:12.000Z,19.3
2024-03-17T11:06:25.000Z,18.8
2024-03-17T11:07:37.000Z,18.4
2024-03-17T11:08:49.000Z,18.2
2024-03-17T11:10:01.000Z,18.8
2024-03-17T11:11:13.000Z,19.2
2024-03-17T11:12:26.000Z,19.4
2024-03-17T11:13:38.000Z,19.7
2024-03-17T11:14:49.000Z,19.8
2024-03-17T11:16:01.000Z,20
2024-03-17T11:17:13.000Z,20.2
2024-03-17T11:18:25.000Z,20.3
2024-03-17T11:19:38.000Z,19.9
2024-03-17T11:20:50.000Z,20
2024-03-17T11:22:02.000Z,20.2
2024-03-17T11:23:14.000Z,20.3
2024-03-17T11:24:26.000Z,20.4
2024-03-17T11:25:39.000Z,20.4
2024-03-17T11:26:51.000Z,20.5
2024-03-17T11:28:03.000Z,20.5
2024-03-17T11:29:15.000Z,20.5
2024-03-17T11:30:26.000Z,20.5
2024-03-17T11:31:38.000Z,20.4
2024-03-17T11:32:51.000Z,20.3
2024-03-17T11:34:03.000Z,20.1
2024-03-17T11:35:15.000Z,19.9
2024-03-17T11:36:27.000Z,19.8
2024-03-17T11:37:39.000Z,19.6
2024-03-17T11:38:52.000Z,19.5
2024-03-17T11:40:04.000Z,19
2024-03-17T11:41:16.000Z,18.8
2024-03-17T11:42:28.000Z,18.6
2024-03-17T11:43:40.000Z,18.8
2024-03-17T11:44:53.000Z,18.9
2024-03-17T11:46:04.000Z,18.9
2024-03-17T11:47:16.000Z,18.8
2024-03-17T11:48:28.000Z,18.8
2024-03-17T11:49:40.000Z,19
2024-03-17T11:50:52.000Z,18.9
2024-03-17T11:52:05.000Z,18.7
2024-03-17T11:53:17.000Z,18.6
2024-03-17T11:54:29.000Z,18.6
2024-03-17T11:55:41.000Z,18.6
2024-03-17T11:56:53.000Z,18.6
2024-03-17T11:58:06.000Z,18.7
2024-03-17T11:59:18.000Z,18.8
2024-03-17T12:00:30.000Z,18.9
2024-03-17T12:01:41.000Z,19
2024-03-17T12:02:53.000Z,19.2
2024-03-17T12:04:05.000Z,19.3
2024-03-17T12:05:18.000Z,19.4
2024-03-17T12:06:30.000Z,19.4
2024-03-17T12:07:42.000Z,19.3
2024-03-17T12:08:54.000Z,19.2
2024-03-17T12:10:06.000Z,19.1
2024-03-17T12:11:19.000Z,18.9
2024-03-17T12:12:31.000Z,18.7
2024-03-17T12:13:43.000Z,18.5
2024-03-17T12:14:55.000Z,18.4
2024-03-17T12:16:07.000Z,18.2
2024-03-17T12:17:19.000Z,18.2
2024-03-17T12:18:31.000Z,18.1
2024-03-17T12:19:43.000Z,18.1
2024-03-17T12:20:55.000Z,18
2024-03-17T12:22:07.000Z,17.9
2024-03-17T12:23:19.000Z,17.9
2024-03-17T12:24:32.000Z,17.9
2024-03-17T12:25:44.000Z,17.9
2024-03-17T12:26:56.000Z,17.9
2024-03-17T12:28:08.000Z,18.1
2024-03-17T12:29:20.000Z,18.2
2024-03-17T12:31:45.000Z,18.1
2024-03-17T12:32:56.000Z,18.1
2024-03-17T12:33:20.686Z,18.2
2024-03-17T12:34:08.000Z,18.1
2024-03-17T12:35:20.000Z,18.1
2024-03-17T12:36:33.000Z,18.1
2024-03-17T12:37:45.000Z,18.4
2024-03-17T12:38:57.000Z,18.4
2024-03-17T12:40:09.000Z,18.5
2024-03-17T12:41:21.000Z,18.5
2024-03-17T12:42:33.000Z,18.7
2024-03-17T12:43:46.000Z,18.9
2024-03-17T12:44:58.000Z,18.8
2024-03-17T12:46:10.000Z,19.1
2024-03-17T12:47:22.000Z,19.5
2024-03-17T12:48:33.000Z,19.3
2024-03-17T12:49:46.000Z,18.9
2024-03-17T12:50:58.000Z,18.6
2024-03-17T12:52:10.000Z,18.4
2024-03-17T12:53:22.000Z,18.2
2024-03-17T12:54:34.000Z,18
2024-03-17T12:55:46.000Z,17.9
2024-03-17T12:58:11.000Z,17.5
2024-03-17T12:59:23.000Z,17.4
2024-03-17T12:59:46.807Z,17.7
2024-03-17T13:00:35.000Z,17.2
2024-03-17T13:01:47.000Z,17
2024-03-17T13:03:00.000Z,16.9
2024-03-17T13:04:11.000Z,16.7
2024-03-17T13:06:35.000Z,16.1
2024-03-17T13:07:47.000Z,15.8
2024-03-17T13:08:11.134Z,16.4
2024-03-17T13:09:00.000Z,15.6
2024-03-17T13:10:12.000Z,15.6
2024-03-17T13:11:24.000Z,15.5
2024-03-17T13:12:36.000Z,15.4
2024-03-17T13:13:48.000Z,15.4
2024-03-17T13:15:00.000Z,15.3
2024-03-17T13:16:13.000Z,15.2
2024-03-17T13:17:25.000Z,15.2
2024-03-17T13:18:37.000Z,15.1
2024-03-17T13:19:48.000Z,15.1
2024-03-17T13:21:00.000Z,15
2024-03-17T13:22:13.000Z,14.9
2024-03-17T13:23:25.000Z,14.9
2024-03-17T13:24:37.000Z,14.8
2024-03-17T13:25:49.000Z,14.8
2024-03-17T13:27:01.000Z,14.7
2024-03-17T13:28:14.000Z,14.7
2024-03-17T13:29:26.000Z,14.7
2024-03-17T13:30:38.000Z,14.7
2024-03-17T13:31:50.000Z,14.7
2024-03-17T13:33:02.000Z,14.7
2024-03-17T13:35:26.000Z,14.7
2024-03-17T13:36:38.000Z,14.7
2024-03-17T13:37:02.614Z,14.7
2024-03-17T13:37:50.000Z,14.6
2024-03-17T13:39:02.000Z,14.6
2024-03-17T13:40:14.000Z,14.7
2024-03-17T13:41:27.000Z,14.7
2024-03-17T13:42:39.000Z,14.7
2024-03-17T13:43:51.000Z,14.6
2024-03-17T13:45:03.000Z,14.5
2024-03-17T13:46:15.000Z,14.4
2024-03-17T13:47:27.000Z,14.3
2024-03-17T13:48:40.000Z,14.3
2024-03-17T13:49:52.000Z,14.3
2024-03-17T13:51:03.000Z,14.2
2024-03-17T13:52:15.000Z,14.2
2024-03-17T13:53:27.000Z,14.3
2024-03-17T13:54:40.000Z,14.3
2024-03-17T13:55:52.000Z,14.4
2024-03-17T13:57:04.000Z,14.5
2024-03-17T13:58:16.000Z,14.5
2024-03-17T13:59:28.000Z,14.6
2024-03-17T14:00:41.000Z,14.6
2024-03-17T14:01:53.000Z,14.6
2024-03-17T14:03:05.000Z,14.5
2024-03-17T14:04:17.000Z,14.5
2024-03-17T14:05:29.000Z,14.5
2024-03-17T14:09:05.000Z,14.5
2024-03-17T14:09:28.685Z,14.6
2024-03-17T14:10:17.000Z,14.5
2024-03-17T14:10:40.875Z,14.6
2024-03-17T14:11:29.000Z,14.5
2024-03-17T14:12:41.000Z,14.5
2024-03-17T14:13:54.000Z,14.6
2024-03-17T14:15:06.000Z,14.6
2024-03-17T14:17:30.000Z,14.7
2024-03-17T14:18:42.000Z,14.7
2024-03-17T14:19:06.163Z,14.7
2024-03-17T14:19:55.000Z,14.8
2024-03-17T14:21:07.000Z,14.9
2024-03-17T14:22:18.000Z,15
2024-03-17T14:23:30.000Z,15.1
2024-03-17T14:24:42.000Z,15.1
2024-03-17T14:25:54.000Z,15.2
2024-03-17T14:27:07.000Z,15.3
2024-03-17T14:28:19.000Z,15.3
2024-03-17T14:29:30.000Z,15.3
2024-03-17T14:30:42.000Z,15.3
2024-03-17T14:31:54.000Z,15.4
2024-03-17T14:33:07.000Z,15.4
2024-03-17T14:35:31.000Z,15.4
2024-03-17T14:36:43.000Z,15.4
2024-03-17T14:37:06.978Z,15.5
2024-03-17T14:37:55.000Z,15.4
2024-03-17T14:39:08.000Z,15.4
2024-03-17T14:40:20.000Z,15.4
2024-03-17T14:41:32.000Z,15.4
2024-03-17T14:42:44.000Z,15.3
2024-03-17T14:43:56.000Z,15.2
2024-03-17T14:45:07.000Z,15.1
2024-03-17T14:46:20.000Z,15.1
2024-03-17T14:47:32.000Z,15
2024-03-17T14:48:44.000Z,14.9
2024-03-17T14:49:56.000Z,14.9
2024-03-17T14:51:08.000Z,14.8
2024-03-17T14:52:21.000Z,14.7
2024-03-17T14:53:33.000Z,14.7
2024-03-17T14:54:45.000Z,14.6
2024-03-17T14:55:57.000Z,14.5
2024-03-17T14:57:09.000Z,14.5
2024-03-17T14:58:21.000Z,14.4
2024-03-17T14:59:34.000Z,14.3
2024-03-17T15:00:45.000Z,14.3
2024-03-17T15:03:09.000Z,14.1
2024-03-17T15:04:21.000Z,14.1
2024-03-17T15:04:45.292Z,14.2
2024-03-17T15:05:34.000Z,14
2024-03-17T15:06:46.000Z,14
2024-03-17T15:07:58.000Z,13.9
2024-03-17T15:09:10.000Z,13.9
2024-03-17T15:10:22.000Z,13.8
2024-03-17T15:11:35.000Z,13.8
2024-03-17T15:12:47.000Z,13.7
2024-03-17T15:13:59.000Z,13.7
2024-03-17T15:15:11.000Z,13.6
2024-03-17T15:16:22.000Z,13.5
2024-03-17T15:17:34.000Z,13.5
2024-03-17T15:18:47.000Z,13.4
2024-03-17T15:19:59.000Z,13.4
2024-03-17T15:21:11.000Z,13.3
2024-03-17T15:22:23.000Z,13.3
2024-03-17T15:23:35.000Z,13.2
2024-03-17T15:24:48.000Z,13.2
2024-03-17T15:26:00.000Z,13.2
2024-03-17T15:27:12.000Z,13.1
2024-03-17T15:29:36.000Z,13.1
2024-03-17T15:30:49.000Z,13.1
2024-03-17T15:31:12.389Z,13.1
2024-03-17T15:32:00.000Z,13
2024-03-17T15:33:12.000Z,13
2024-03-17T15:34:24.000Z,13
2024-03-17T15:35:36.000Z,13
2024-03-17T15:36:48.000Z,13
2024-03-17T15:38:01.000Z,13
2024-03-17T15:39:13.000Z,13
2024-03-17T15:40:25.000Z,12.9
2024-03-17T15:41:37.000Z,12.9
2024-03-17T15:42:49.000Z,12.9
2024-03-17T15:44:02.000Z,12.9
2024-03-17T15:45:14.000Z,12.9
2024-03-17T15:46:26.000Z,12.8
2024-03-17T15:47:37.000Z,12.8
2024-03-17T15:48:49.000Z,12.7
2024-03-17T15:50:01.000Z,12.7
2024-03-17T15:51:14.000Z,12.6
2024-03-17T15:52:26.000Z,12.6
2024-03-17T15:53:38.000Z,12.5
2024-03-17T15:54:50.000Z,12.5
2024-03-17T15:56:02.000Z,12.4
2024-03-17T15:57:15.000Z,12.4
2024-03-17T15:58:27.000Z,12.4
2024-03-17T15:59:39.000Z,12.4
2024-03-17T16:00:51.000Z,12.4
2024-03-17T16:02:03.000Z,12.3
2024-03-17T16:03:15.000Z,12.3
2024-03-17T16:04:27.000Z,12.3
2024-03-17T16:05:39.000Z,12.2
2024-03-17T16:06:51.000Z,12.2
2024-03-17T16:08:03.000Z,12.1
2024-03-17T16:09:15.000Z,12.1
2024-03-17T16:10:28.000Z,12.1
2024-03-17T16:11:40.000Z,12
2024-03-17T16:12:52.000Z,12
2024-03-17T16:14:04.000Z,12
2024-03-17T16:16:29.000Z,11.9
2024-03-17T16:17:41.000Z,11.8
2024-03-17T16:18:04.700Z,11.9
2024-03-17T16:18:52.000Z,11.8
2024-03-17T16:20:04.000Z,11.7